Time,TemperatureF,DewpointF,PressureIn,WindDirection,WindDirectionDegrees,WindSpeedMPH,WindSpeedGustMPH,Humidity,HourlyPrecipIn,Conditions,Clouds,dailyrainin,SoftwareType,DateUTC
2013-02-23 00:14:00,27.0,26.8,30.01,ESE,112,0.0,-999.0,99,-99.99,,,0.00,Acu-Link.com,2013-02-23 06:14:00,
2013-02-23 00:29:00,26.2,26.0,30.02,South,180,0.0,-999.0,99,-99.99,,,0.00,Acu-Link.com,2013-02-23 06:29:00,
2013-02-23 00:44:00,25.7,25.5,30.01,South,180,0.0,-999.0,99,-99.99,,,0.00,Acu-Link.com,2013-02-23 06:44:00,
2013-02-23 00:59:00,25.5,25.3,30.01,SSW,202,0.0,-999.0,99,-99.99,,,0.00,Acu-Link.com,2013-02-23 06:59:00,
2013-02-23 01:14:00,25.0,24.8,30.01,South,180,0.0,-999.0,99,-99.99,,,0.00,Acu-Link.com,2013-02-23 07:14:00,
2013-02-23 01:30:00,25.3,25.1,30.01,WSW,247,0.0,-999.0,99,-99.99,,,0.00,Acu-Link.com,2013-02-23 07:30:00,
2013-02-23 01:45:00,25.9,25.7,30.00,West,270,0.0,-999.0,99,-99.99,,,0.00,Acu-Link.com,2013-02-23 07:45:00,
2013-02-23 02:00:00,25.5,25.3,30.01,WSW,247,2.7,-999.0,99,-99.99,,,0.00,Acu-Link.com,2013-02-23 08:00:00,
2013-02-23 02:15:00,26.2,26.0,30.02,West,270,3.2,-999.0,99,-99.99,,,0.00,Acu-Link.com,2013-02-23 08:15:00,
2013-02-23 02:30:00,26.6,26.4,30.01,NW,315,3.2,-999.0,99,-99.99,,,0.00,Acu-Link.com,2013-02-23 08:30:00,
2013-02-23 02:45:00,26.6,26.4,30.00,WNW,292,2.7,-999.0,99,-99.99,,,0.00,Acu-Link.com,2013-02-23 08:45:00,
2013-02-23 03:00:00,26.4,26.2,30.00,NW,315,2.2,-999.0,99,-99.99,,,0.00,Acu-Link.com,2013-02-23 09:00:00,
2013-02-23 03:20:00,26.4,26.2,30.00,NW,315,2.2,-999.0,99,-99.99,,,0.00,Acu-Link.com,2013-02-23 09:20:00,
2013-02-23 03:35:00,26.4,26.2,30.00,NNW,337,3.2,-999.0,99,-99.99,,,0.00,Acu-Link.com,2013-02-23 09:35:00,
2013-02-23 03:50:00,26.2,26.0,30.01,WNW,292,3.2,-999.0,99,-99.99,,,0.00,Acu-Link.com,2013-02-23 09:50:00,
2013-02-23 04:05:00,25.9,25.7,30.01,WNW,292,3.2,-999.0,99,-99.99,,,0.00,Acu-Link.com,2013-02-23 10:05:00,
2013-02-23 04:21:00,25.5,25.3,30.01,NW,315,1.7,-999.0,99,-99.99,,,0.00,Acu-Link.com,2013-02-23 10:21:00,
2013-02-23 04:36:00,24.8,24.6,30.00,NW,315,0.0,-999.0,99,-99.99,,,0.00,Acu-Link.com,2013-02-23 10:36:00,
2013-02-23 04:51:00,24.4,24.2,30.00,WNW,292,2.2,-999.0,99,-99.99,,,0.00,Acu-Link.com,2013-02-23 10:51:00,
2013-02-23 05:06:00,24.1,23.9,30.00,NW,315,0.0,-999.0,99,-99.99,,,0.00,Acu-Link.com,2013-02-23 11:06:00,
2013-02-23 05:21:00,23.9,23.7,30.00,NW,315,2.2,-999.0,99,-99.99,,,0.00,Acu-Link.com,2013-02-23 11:21:00,
2013-02-23 05:36:00,23.9,23.7,30.00,WNW,292,1.7,-999.0,99,-99.99,,,0.00,Acu-Link.com,2013-02-23 11:36:00,
2013-02-23 05:51:00,23.5,23.3,29.99,NE,45,0.0,-999.0,99,-99.99,,,0.00,Acu-Link.com,2013-02-23 11:51:00,
2013-02-23 06:06:00,23.2,23.0,30.01,NNW,337,0.0,-999.0,99,-99.99,,,0.00,Acu-Link.com,2013-02-23 12:06:00,
2013-02-23 06:22:00,25.3,25.1,30.00,SW,225,0.0,-999.0,99,-99.99,,,0.00,Acu-Link.com,2013-02-23 12:22:00,
2013-02-23 06:37:00,26.2,26.0,30.00,WSW,247,0.0,-999.0,99,-99.99,,,0.00,Acu-Link.com,2013-02-23 12:37:00,
2013-02-23 06:52:00,23.0,22.8,30.01,SSW,202,0.0,-999.0,99,-99.99,,,0.00,Acu-Link.com,2013-02-23 12:52:00,
2013-02-23 07:07:00,25.3,25.1,30.00,SSW,202,0.0,-999.0,99,-99.99,,,0.00,Acu-Link.com,2013-02-23 13:07:00,
2013-02-23 07:22:00,27.1,26.9,30.00,SSW,202,0.0,-999.0,99,-99.99,,,0.00,Acu-Link.com,2013-02-23 13:22:00,
2013-02-23 07:37:00,30.0,29.8,30.00,SSW,202,0.0,-999.0,99,-99.99,,,0.00,Acu-Link.com,2013-02-23 13:37:00,
2013-02-23 07:52:00,27.7,27.5,30.00,NW,315,2.7,-999.0,99,-99.99,,,0.00,Acu-Link.com,2013-02-23 13:52:00,
2013-02-23 08:07:00,28.6,28.4,30.00,NW,315,3.7,-999.0,99,-99.99,,,0.00,Acu-Link.com,2013-02-23 14:07:00,
2013-02-23 08:22:00,29.5,29.3,30.01,NW,315,3.2,-999.0,99,-99.99,,,0.00,Acu-Link.com,2013-02-23 14:22:00,
2013-02-23 08:38:00,29.7,29.5,30.00,West,270,3.2,-999.0,99,-99.99,,,0.00,Acu-Link.com,2013-02-23 14:38:00,
2013-02-23 08:53:00,32.0,31.8,30.00,NE,45,3.2,-999.0,99,-99.99,,,0.00,Acu-Link.com,2013-02-23 14:53:00,
2013-02-23 09:08:00,33.1,32.3,30.01,NE,45,1.7,-999.0,97,-99.99,,,0.00,Acu-Link.com,2013-02-23 15:08:00,
2013-02-23 09:23:00,33.1,31.6,30.00,WNW,292,2.7,-999.0,94,-99.99,,,0.00,Acu-Link.com,2013-02-23 15:23:00,
2013-02-23 09:38:00,33.1,31.8,30.00,NW,315,4.7,-999.0,95,-99.99,,,0.00,Acu-Link.com,2013-02-23 15:38:00,
2013-02-23 09:53:00,34.7,34.4,30.00,WNW,292,2.7,-999.0,99,-99.99,,,0.00,Acu-Link.com,2013-02-23 15:53:00,
2013-02-23 10:08:00,35.4,31.6,30.00,NNW,337,2.2,-999.0,86,-99.99,,,0.00,Acu-Link.com,2013-02-23 16:08:00,
2013-02-23 10:23:00,36.3,31.0,29.98,ENE,67,4.2,-999.0,81,-99.99,,,0.00,Acu-Link.com,2013-02-23 16:23:00,
2013-02-23 10:38:00,36.7,31.4,29.99,NNW,337,6.8,-999.0,81,-99.99,,,0.00,Acu-Link.com,2013-02-23 16:38:00,
2013-02-23 10:54:00,35.8,29.0,29.99,West,270,2.7,-999.0,76,-99.99,,,0.00,Acu-Link.com,2013-02-23 16:54:00,
2013-02-23 11:09:00,36.0,30.1,29.99,ENE,67,3.2,-999.0,79,-99.99,,,0.00,Acu-Link.com,2013-02-23 17:09:00,
2013-02-23 11:24:00,37.4,28.9,29.99,NW,315,2.7,-999.0,71,-99.99,,,0.00,Acu-Link.com,2013-02-23 17:24:00,
2013-02-23 11:39:00,39.9,29.1,29.99,NNW,337,5.3,-999.0,65,-99.99,,,0.00,Acu-Link.com,2013-02-23 17:39:00,
2013-02-23 11:54:00,40.8,28.4,29.99,WNW,292,5.3,-999.0,61,-99.99,,,0.00,Acu-Link.com,2013-02-23 17:54:00,
2013-02-23 12:09:00,41.7,28.4,29.98,West,270,2.7,-999.0,59,-99.99,,,0.00,Acu-Link.com,2013-02-23 18:09:00,
2013-02-23 12:24:00,38.5,29.2,29.98,WSW,247,3.2,-999.0,69,-99.99,,,0.00,Acu-Link.com,2013-02-23 18:24:00,
2013-02-23 12:39:00,39.7,29.7,29.98,WNW,292,4.7,-999.0,67,-99.99,,,0.00,Acu-Link.com,2013-02-23 18:39:00,
2013-02-23 12:54:00,39.6,29.6,29.97,NW,315,6.3,-999.0,67,-99.99,,,0.00,Acu-Link.com,2013-02-23 18:54:00,
2013-02-23 13:10:00,39.7,28.9,29.96,NNW,337,3.2,-999.0,65,-99.99,,,0.00,Acu-Link.com,2013-02-23 19:10:00,
2013-02-23 13:25:00,41.0,29.4,29.96,West,270,6.3,-999.0,63,-99.99,,,0.00,Acu-Link.com,2013-02-23 19:25:00,
2013-02-23 13:40:00,41.4,30.5,29.95,North,0,3.2,-999.0,65,-99.99,,,0.00,Acu-Link.com,2013-02-23 19:40:00,
2013-02-23 13:55:00,40.8,26.8,29.94,WNW,292,3.7,-999.0,57,-99.99,,,0.00,Acu-Link.com,2013-02-23 19:55:00,
2013-02-23 14:10:00,41.4,26.9,29.94,West,270,5.8,-999.0,56,-99.99,,,0.00,Acu-Link.com,2013-02-23 20:10:00,
2013-02-23 14:25:00,41.5,27.4,29.94,NNW,337,6.3,-999.0,57,-99.99,,,0.00,Acu-Link.com,2013-02-23 20:25:00,
2013-02-23 14:40:00,41.2,27.6,29.93,NW,315,3.2,-999.0,58,-99.99,,,0.00,Acu-Link.com,2013-02-23 20:40:00,
2013-02-23 14:55:00,41.4,28.6,29.93,ENE,67,3.2,-999.0,60,-99.99,,,0.00,Acu-Link.com,2013-02-23 20:55:00,
2013-02-23 15:11:00,41.7,27.6,29.94,WSW,247,6.3,-999.0,57,-99.99,,,0.00,Acu-Link.com,2013-02-23 21:11:00,
2013-02-23 15:26:00,42.1,28.8,29.93,NNW,337,4.7,-999.0,59,-99.99,,,0.00,Acu-Link.com,2013-02-23 21:26:00,
2013-02-23 15:41:00,42.3,28.6,29.92,NW,315,2.2,-999.0,58,-99.99,,,0.00,Acu-Link.com,2013-02-23 21:41:00,
2013-02-23 15:56:00,43.0,29.2,29.92,West,270,2.7,-999.0,58,-99.99,,,0.00,Acu-Link.com,2013-02-23 21:56:00,
2013-02-23 16:11:00,41.9,29.0,29.93,NNW,337,6.3,-999.0,60,-99.99,,,0.00,Acu-Link.com,2013-02-23 22:11:00,
2013-02-23 16:27:00,41.5,28.7,29.93,West,270,4.7,-999.0,60,-99.99,,,0.00,Acu-Link.com,2013-02-23 22:27:00,
2013-02-23 16:42:00,41.4,29.4,29.93,NE,45,4.2,-999.0,62,-99.99,,,0.00,Acu-Link.com,2013-02-23 22:42:00,
2013-02-23 16:57:00,39.9,29.8,29.94,NNW,337,5.3,-999.0,67,-99.99,,,0.00,Acu-Link.com,2013-02-23 22:57:00,
2013-02-23 17:12:00,38.7,30.8,29.93,NW,315,5.3,-999.0,73,-99.99,,,0.00,Acu-Link.com,2013-02-23 23:12:00,
2013-02-23 17:27:00,37.8,29.9,29.93,WNW,292,4.7,-999.0,73,-99.99,,,0.00,Acu-Link.com,2013-02-23 23:27:00,
2013-02-23 17:42:00,37.0,28.8,29.94,WNW,292,5.3,-999.0,72,-99.99,,,0.00,Acu-Link.com,2013-02-23 23:42:00,
2013-02-23 17:57:00,36.3,27.5,29.94,NW,315,3.2,-999.0,70,-99.99,,,0.00,Acu-Link.com,2013-02-23 23:57:00,
2013-02-23 18:12:00,36.3,28.5,29.95,NW,315,3.7,-999.0,73,-99.99,,,0.00,Acu-Link.com,2013-02-24 00:12:00,
2013-02-23 18:27:00,35.8,30.2,29.94,NNW,337,2.7,-999.0,80,-99.99,,,0.00,Acu-Link.com,2013-02-24 00:27:00,
2013-02-23 18:43:00,35.2,31.7,29.95,NNW,337,3.2,-999.0,87,-99.99,,,0.00,Acu-Link.com,2013-02-24 00:43:00,
2013-02-23 18:58:00,34.5,31.6,29.96,North,0,3.2,-999.0,89,-99.99,,,0.00,Acu-Link.com,2013-02-24 00:58:00,
2013-02-23 19:13:00,33.8,31.5,29.95,NNW,337,2.7,-999.0,91,-99.99,,,0.00,Acu-Link.com,2013-02-24 01:13:00,
2013-02-23 19:28:00,33.1,31.3,29.96,North,0,2.7,-999.0,93,-99.99,,,0.00,Acu-Link.com,2013-02-24 01:28:00,
2013-02-23 19:43:00,32.5,31.7,29.96,NNW,337,2.7,-999.0,97,-99.99,,,0.00,Acu-Link.com,2013-02-24 01:43:00,
2013-02-23 19:58:00,32.2,31.7,29.96,North,0,2.7,-999.0,98,-99.99,,,0.00,Acu-Link.com,2013-02-24 01:58:00,
2013-02-23 20:14:00,31.6,31.1,29.97,North,0,1.7,-999.0,98,-99.99,,,0.00,Acu-Link.com,2013-02-24 02:14:00,
2013-02-23 20:29:00,30.9,30.7,29.98,NNW,337,2.2,-999.0,99,-99.99,,,0.00,Acu-Link.com,2013-02-24 02:29:00,
2013-02-23 20:44:00,30.6,30.4,29.97,North,0,0.0,-999.0,99,-99.99,,,0.00,Acu-Link.com,2013-02-24 02:44:00,
2013-02-23 20:59:00,29.8,29.6,29.97,NE,45,1.7,-999.0,99,-99.99,,,0.00,Acu-Link.com,2013-02-24 02:59:00,
2013-02-23 21:14:00,29.7,29.5,29.97,NW,315,0.0,-999.0,99,-99.99,,,0.00,Acu-Link.com,2013-02-24 03:14:00,
2013-02-23 21:29:00,29.7,29.5,29.97,SE,135,0.0,-999.0,99,-99.99,,,0.00,Acu-Link.com,2013-02-24 03:29:00,
2013-02-23 21:44:00,28.4,28.2,29.98,SSE,157,0.0,-999.0,99,-99.99,,,0.00,Acu-Link.com,2013-02-24 03:44:00,
2013-02-23 21:59:00,27.5,27.3,29.97,SSE,157,0.0,-999.0,99,-99.99,,,0.00,Acu-Link.com,2013-02-24 03:59:00,
2013-02-23 22:14:00,26.8,26.6,29.97,SW,225,0.0,-999.0,99,-99.99,,,0.00,Acu-Link.com,2013-02-24 04:14:00,
2013-02-23 22:30:00,26.4,26.2,29.96,East,90,0.0,-999.0,99,-99.99,,,0.00,Acu-Link.com,2013-02-24 04:30:00,
2013-02-23 22:45:00,26.2,26.0,29.97,SSW,202,0.0,-999.0,99,-99.99,,,0.00,Acu-Link.com,2013-02-24 04:45:00,
2013-02-23 23:00:00,26.1,25.9,29.95,East,90,0.0,-999.0,99,-99.99,,,0.00,Acu-Link.com,2013-02-24 05:00:00,
2013-02-23 23:15:00,25.7,25.5,29.96,West,270,0.0,-999.0,99,-99.99,,,0.00,Acu-Link.com,2013-02-24 05:15:00,
2013-02-23 23:30:00,25.2,25.0,29.96,SW,225,0.0,-999.0,99,-99.99,,,0.00,Acu-Link.com,2013-02-24 05:30:00,
2013-02-23 23:45:00,25.9,25.7,29.97,South,180,0.0,-999.0,99,-99.99,,,0.00,Acu-Link.com,2013-02-24 05:45:00,